createdAt,value
2023-01-21T00:00:32.222Z,6.20
2023-01-21T00:02:59.612Z,4.83
2023-01-21T00:05:27.059Z,6.67
2023-01-21T00:07:55.787Z,5.27
2023-01-21T00:10:23.196Z,6.13
2023-01-21T00:12:50.723Z,4.80
2023-01-21T00:15:18.086Z,5.03
2023-01-21T00:17:45.400Z,3.70
2023-01-21T00:20:13.461Z,2.43
2023-01-21T00:22:40.887Z,4.70
2023-01-21T00:25:09.986Z,3.23
2023-01-21T00:27:37.339Z,4.50
2023-01-21T00:30:04.982Z,4.50
2023-01-21T00:32:32.390Z,4.27
2023-01-21T00:34:59.766Z,4.90
2023-01-21T00:37:27.157Z,5.00
2023-01-21T00:39:54.470Z,4.67
2023-01-21T00:42:23.139Z,3.13
2023-01-21T00:44:57.539Z,5.57
2023-01-21T00:47:28.893Z,6.07
2023-01-21T00:49:56.333Z,3.83
2023-01-21T00:52:29.020Z,3.73
2023-01-21T00:55:01.907Z,3.73
2023-01-21T00:57:30.793Z,5.13
2023-01-21T00:59:58.913Z,4.90
2023-01-21T01:02:29.226Z,4.30
2023-01-21T01:04:56.717Z,5.27
2023-01-21T01:07:24.215Z,4.83
2023-01-21T01:09:51.653Z,4.40
2023-01-21T01:12:19.035Z,5.50
2023-01-21T01:14:47.959Z,4.63
2023-01-21T01:17:15.402Z,5.20
2023-01-21T01:19:42.749Z,5.90
2023-01-21T01:22:10.219Z,6.63
2023-01-21T01:24:37.644Z,6.23
2023-01-21T01:27:05.079Z,6.57
2023-01-21T01:29:32.462Z,6.03
2023-01-21T01:32:01.128Z,7.10
2023-01-21T01:34:28.467Z,7.60
2023-01-21T01:36:55.864Z,8.93
2023-01-21T01:39:23.337Z,6.63
2023-01-21T01:41:50.710Z,7.47
2023-01-21T01:44:37.145Z,7.67
2023-01-21T01:47:06.070Z,7.23
2023-01-21T01:49:33.440Z,6.10
2023-01-21T01:52:03.825Z,6.63
2023-01-21T01:54:33.294Z,6.80
2023-01-21T01:57:02.699Z,7.30
2023-01-21T01:59:31.486Z,7.90
2023-01-21T02:02:00.601Z,6.27
2023-01-21T02:04:32.250Z,6.93
2023-01-21T02:06:59.675Z,7.60
2023-01-21T02:09:30.133Z,6.30
2023-01-21T02:11:57.765Z,6.87
2023-01-21T02:14:25.175Z,5.73
2023-01-21T02:17:10.480Z,7.27
2023-01-21T02:19:59.648Z,6.17
2023-01-21T02:22:28.914Z,6.27
2023-01-21T02:25:17.260Z,6.00
2023-01-21T02:27:49.532Z,6.80
2023-01-21T02:30:31.821Z,5.93
2023-01-21T02:33:14.276Z,5.13
2023-01-21T02:35:44.397Z,5.40
2023-01-21T02:38:13.666Z,6.07
2023-01-21T02:40:45.914Z,5.23
2023-01-21T02:43:13.995Z,5.80
2023-01-21T02:45:46.361Z,6.43
2023-01-21T02:48:18.843Z,6.20
2023-01-21T02:50:47.249Z,5.77
2023-01-21T02:53:19.887Z,5.87
2023-01-21T02:55:47.241Z,4.63
2023-01-21T02:58:16.541Z,5.93
2023-01-21T03:00:54.081Z,5.87
2023-01-21T03:03:42.399Z,5.57
2023-01-21T03:06:30.149Z,5.80
2023-01-21T03:08:59.760Z,6.43
2023-01-21T03:11:27.326Z,5.90
2023-01-21T03:14:13.364Z,6.03
2023-01-21T03:16:59.420Z,5.17
2023-01-21T03:19:31.251Z,5.77
2023-01-21T03:22:00.263Z,5.87
2023-01-21T03:24:27.875Z,5.10
2023-01-21T03:26:57.205Z,6.73
2023-01-21T03:29:26.560Z,5.77
2023-01-21T03:31:56.415Z,5.30
2023-01-21T03:34:24.891Z,4.83
2023-01-21T03:36:53.564Z,5.40
2023-01-21T03:39:28.173Z,5.20
2023-01-21T03:41:55.855Z,6.37
2023-01-21T03:47:00.353Z,5.50
2023-01-21T03:49:31.018Z,5.37
2023-01-21T03:52:00.119Z,4.70
2023-01-21T03:54:28.828Z,6.33
2023-01-21T03:56:56.167Z,6.17
2023-01-21T03:59:23.741Z,4.43
2023-01-21T04:01:51.205Z,5.27
2023-01-21T04:04:18.598Z,4.77
2023-01-21T04:06:46.033Z,5.17
2023-01-21T04:09:13.839Z,4.60
2023-01-21T04:11:42.855Z,5.37
2023-01-21T04:14:10.204Z,5.77
2023-01-21T04:16:37.619Z,4.70
2023-01-21T04:19:05.347Z,4.70
2023-01-21T04:21:32.700Z,4.70
2023-01-21T04:24:00.150Z,5.37
2023-01-21T04:26:27.703Z,4.20
2023-01-21T04:28:56.348Z,4.90
2023-01-21T04:31:23.790Z,4.30
2023-01-21T04:33:51.216Z,4.33
2023-01-21T04:36:18.543Z,4.60
2023-01-21T04:38:45.893Z,5.23
2023-01-21T04:41:13.239Z,4.70
2023-01-21T04:43:40.616Z,3.97
2023-01-21T04:46:09.300Z,4.63
2023-01-21T04:48:36.960Z,5.57
2023-01-21T04:51:06.287Z,4.40
2023-01-21T04:53:33.671Z,4.93
2023-01-21T04:56:01.056Z,4.43
2023-01-21T04:58:28.435Z,4.57
2023-01-21T05:00:56.044Z,3.93
2023-01-21T05:03:24.765Z,4.57
2023-01-21T05:05:52.152Z,2.73
2023-01-21T05:08:19.547Z,4.00
2023-01-21T05:10:46.878Z,2.20
2023-01-21T05:13:14.221Z,4.20
2023-01-21T05:15:41.567Z,3.73
2023-01-21T05:18:09.012Z,3.27
2023-01-21T05:20:37.707Z,3.47
2023-01-21T05:23:05.223Z,3.60
2023-01-21T05:25:32.550Z,3.37
2023-01-21T05:27:59.884Z,4.63
2023-01-21T05:30:27.223Z,4.10
2023-01-21T05:32:55.199Z,3.63
2023-01-21T05:35:23.178Z,3.73
2023-01-21T05:37:51.853Z,3.73
2023-01-21T05:40:19.837Z,3.60
2023-01-21T05:42:47.443Z,3.93
2023-01-21T05:45:15.158Z,3.87
2023-01-21T05:47:45.132Z,3.00
2023-01-21T05:50:13.189Z,3.03
2023-01-21T05:52:40.809Z,4.23
2023-01-21T05:55:09.956Z,4.40
2023-01-21T05:57:37.363Z,4.23
2023-01-21T06:00:05.325Z,3.67
2023-01-21T06:02:33.410Z,5.53
2023-01-21T06:05:01.038Z,4.40
2023-01-21T06:07:28.374Z,5.47
2023-01-21T06:09:55.725Z,3.57
2023-01-21T06:12:25.220Z,4.40
2023-01-21T06:14:52.648Z,4.80
2023-01-21T06:17:20.008Z,3.30
2023-01-21T06:19:47.362Z,4.67
2023-01-21T06:22:15.930Z,5.30
2023-01-21T06:24:43.292Z,4.40
2023-01-21T06:27:10.680Z,4.97
2023-01-21T06:29:39.377Z,4.77
2023-01-21T06:32:07.148Z,5.10
2023-01-21T06:34:34.632Z,5.43
2023-01-21T06:37:02.008Z,5.27
2023-01-21T06:39:29.359Z,5.13
2023-01-21T06:41:56.673Z,5.03
2023-01-21T06:44:24.060Z,4.40
2023-01-21T06:47:00.690Z,4.30
2023-01-21T06:49:28.428Z,5.80
2023-01-21T06:51:56.374Z,5.30
2023-01-21T06:54:23.755Z,4.37
2023-01-21T06:56:51.136Z,5.43
2023-01-21T06:59:18.536Z,5.23
2023-01-21T07:01:45.910Z,6.23
2023-01-21T07:04:14.646Z,5.83
2023-01-21T07:06:42.081Z,6.17
2023-01-21T07:09:09.508Z,7.57
2023-01-21T07:11:36.839Z,6.93
2023-01-21T07:14:04.198Z,6.40
2023-01-21T07:16:31.701Z,7.10
2023-01-21T07:18:59.075Z,5.97
2023-01-21T07:21:28.032Z,5.57
2023-01-21T07:23:56.824Z,7.70
2023-01-21T07:26:24.171Z,6.07
2023-01-21T07:28:51.650Z,6.70
2023-01-21T07:31:19.078Z,6.13
2023-01-21T07:33:46.622Z,7.70
2023-01-21T07:36:13.985Z,6.13
2023-01-21T07:38:42.747Z,5.70
2023-01-21T07:41:10.349Z,7.10
2023-01-21T07:43:37.759Z,5.80
2023-01-21T07:46:05.157Z,6.13
2023-01-21T07:48:32.573Z,6.97
2023-01-21T07:51:00.577Z,6.23
2023-01-21T07:53:28.499Z,5.43
2023-01-21T07:56:00.539Z,5.60
2023-01-21T07:58:32.010Z,6.10
2023-01-21T08:01:01.953Z,6.20
2023-01-21T08:03:30.965Z,5.57
2023-01-21T08:05:58.655Z,5.53
2023-01-21T08:08:28.675Z,5.43
2023-01-21T08:10:57.435Z,4.80
2023-01-21T08:13:25.068Z,5.77
2023-01-21T08:15:53.337Z,5.23
2023-01-21T08:18:22.443Z,6.87
2023-01-21T08:20:50.679Z,6.27
2023-01-21T08:23:18.249Z,6.30
2023-01-21T08:25:45.577Z,7.13
2023-01-21T08:28:15.343Z,5.47
2023-01-21T08:30:42.754Z,5.87
2023-01-21T08:33:10.130Z,5.57
2023-01-21T08:35:37.511Z,5.83
2023-01-21T08:38:04.914Z,5.87
2023-01-21T08:40:32.296Z,6.93
2023-01-21T08:43:00.254Z,5.37
2023-01-21T08:45:29.491Z,6.23
2023-01-21T08:47:57.140Z,6.23
2023-01-21T08:50:24.936Z,5.33
2023-01-21T08:52:53.099Z,6.10
2023-01-21T08:55:20.956Z,6.50
2023-01-21T08:57:51.999Z,6.27
2023-01-21T09:00:20.179Z,6.17
2023-01-21T09:02:51.435Z,6.20
2023-01-21T09:05:19.347Z,5.33
2023-01-21T09:07:46.801Z,4.57
2023-01-21T09:10:34.352Z,6.23
2023-01-21T09:13:04.604Z,5.63
2023-01-21T09:15:32.079Z,6.10
2023-01-21T09:18:00.818Z,5.97
2023-01-21T09:20:28.167Z,6.80
2023-01-21T09:22:55.726Z,5.80
2023-01-21T09:25:23.432Z,6.07
2023-01-21T09:27:50.889Z,5.57
2023-01-21T09:30:18.352Z,7.73
2023-01-21T09:32:45.783Z,6.00
2023-01-21T09:35:16.831Z,6.83
2023-01-21T09:37:48.311Z,6.37
2023-01-21T09:40:18.809Z,7.50
2023-01-21T09:42:48.783Z,5.63
2023-01-21T09:45:17.052Z,6.40
2023-01-21T09:47:46.003Z,6.97
2023-01-21T09:50:16.634Z,6.73
2023-01-21T09:52:49.541Z,6.50
2023-01-21T09:55:18.352Z,5.90
2023-01-21T09:58:04.307Z,6.77
2023-01-21T10:00:34.042Z,6.10
2023-01-21T10:03:05.073Z,6.70
2023-01-21T10:05:59.632Z,6.33
2023-01-21T10:08:32.447Z,5.40
2023-01-21T10:11:06.415Z,7.03
2023-01-21T10:13:43.149Z,6.73
2023-01-21T10:16:14.357Z,5.70
2023-01-21T10:18:43.248Z,6.37
2023-01-21T10:21:14.068Z,6.00
2023-01-21T10:23:44.668Z,5.97
2023-01-21T10:26:13.086Z,5.07
2023-01-21T10:28:42.020Z,5.97
2023-01-21T10:31:12.798Z,5.90
2023-01-21T10:33:40.209Z,5.87
2023-01-21T10:36:16.652Z,4.90
2023-01-21T10:38:48.772Z,5.37
2023-01-21T10:41:23.627Z,6.07
2023-01-21T10:43:54.193Z,5.53
2023-01-21T10:46:26.436Z,5.70
2023-01-21T10:48:57.689Z,4.80
2023-01-21T10:51:27.891Z,6.53
2023-01-21T10:53:59.475Z,7.37
2023-01-21T10:56:43.556Z,4.93
2023-01-21T10:59:12.721Z,5.60
2023-01-21T11:01:41.544Z,6.33
2023-01-21T11:04:12.574Z,5.40
2023-01-21T11:06:40.813Z,5.50
2023-01-21T11:09:13.304Z,5.03
2023-01-21T11:11:42.792Z,5.73
2023-01-21T11:14:10.189Z,5.33
2023-01-21T11:16:43.898Z,6.00
2023-01-21T11:19:13.524Z,5.07
2023-01-21T11:21:58.981Z,4.83
2023-01-21T11:24:29.648Z,5.93
2023-01-21T11:26:57.834Z,5.30
2023-01-21T11:29:26.213Z,5.67
2023-01-21T11:32:00.768Z,6.50
2023-01-21T11:34:29.013Z,5.10
2023-01-21T11:36:57.849Z,5.03
2023-01-21T11:39:26.022Z,5.57
2023-01-21T11:41:55.170Z,5.77
2023-01-21T11:44:35.069Z,4.60
2023-01-21T11:47:05.810Z,4.77
2023-01-21T11:53:36.991Z,5.27
2023-01-21T11:56:23.363Z,5.50
2023-01-21T11:58:59.681Z,4.67
2023-01-21T12:02:08.129Z,5.20
2023-01-21T12:04:45.699Z,4.23
2023-01-21T12:07:37.367Z,4.00
2023-01-21T12:10:08.481Z,3.97
2023-01-21T12:12:42.267Z,5.23
2023-01-21T12:15:16.524Z,4.23
2023-01-21T12:17:48.862Z,4.70
2023-01-21T12:20:23.388Z,3.93
2023-01-21T12:22:58.484Z,4.37
2023-01-21T12:25:30.354Z,5.33
2023-01-21T12:28:07.211Z,4.73
2023-01-21T12:30:40.752Z,4.23
2023-01-21T12:33:12.571Z,4.20
2023-01-21T12:35:41.611Z,4.13
2023-01-21T12:38:15.321Z,4.00
2023-01-21T12:40:47.292Z,4.53
2023-01-21T12:43:16.823Z,4.40
2023-01-21T12:45:47.611Z,2.60
2023-01-21T12:48:18.080Z,3.70
2023-01-21T12:50:47.976Z,4.57
2023-01-21T12:53:20.428Z,3.30
2023-01-21T12:55:58.972Z,4.27
2023-01-21T12:58:31.288Z,4.63
2023-01-21T13:01:02.145Z,4.50
2023-01-21T13:03:34.783Z,3.87
2023-01-21T13:06:52.014Z,3.87
2023-01-21T13:09:25.650Z,3.00
2023-01-21T13:12:00.596Z,4.47
2023-01-21T13:14:31.162Z,4.77
2023-01-21T13:17:01.591Z,3.13
2023-01-21T13:28:23.527Z,3.63
2023-01-21T13:33:57.678Z,2.57
2023-01-21T13:36:45.620Z,3.10
2023-01-21T13:42:25.252Z,2.83
2023-01-21T13:45:17.774Z,3.40
2023-01-21T13:51:07.287Z,3.20
2023-01-21T13:56:55.799Z,2.23
2023-01-21T13:59:26.136Z,3.17
2023-01-21T14:01:57.194Z,2.77
2023-01-21T14:04:30.413Z,2.80
2023-01-21T14:07:01.639Z,1.97
2023-01-21T14:09:32.977Z,2.20
2023-01-21T14:12:30.475Z,2.50
2023-01-21T14:15:24.576Z,2.80
2023-01-21T14:18:08.445Z,2.53
2023-01-21T14:20:41.694Z,2.63
2023-01-21T14:23:38.151Z,1.87
2023-01-21T14:26:10.687Z,2.20
2023-01-21T14:28:40.453Z,2.50
2023-01-21T14:31:11.393Z,8.63
2023-01-21T14:33:44.257Z,6.90
2023-01-21T14:36:15.460Z,2.23
2023-01-21T14:38:49.584Z,2.17
2023-01-21T14:41:16.984Z,2.60
2023-01-21T14:43:48.702Z,2.00
2023-01-21T14:46:27.983Z,2.10
2023-01-21T14:49:00.257Z,2.10
2023-01-21T14:51:28.386Z,2.40
2023-01-21T14:53:58.766Z,2.37
2023-01-21T14:56:27.052Z,2.30
2023-01-21T14:58:55.665Z,1.67
2023-01-21T15:01:29.432Z,2.17
2023-01-21T15:03:57.551Z,1.80
2023-01-21T15:06:26.121Z,1.80
2023-01-21T15:08:54.705Z,2.00
2023-01-21T15:11:23.480Z,2.03
2023-01-21T15:16:51.351Z,1.83
2023-01-21T15:19:33.794Z,1.67
2023-01-21T15:22:26.257Z,1.90
2023-01-21T15:25:26.986Z,1.57
2023-01-21T15:28:13.371Z,2.20
2023-01-21T15:30:53.859Z,1.90
2023-01-21T15:33:26.718Z,2.17
2023-01-21T15:35:55.094Z,2.97
2023-01-21T15:38:24.706Z,2.20
2023-01-21T15:40:54.255Z,2.77
2023-01-21T15:43:24.668Z,3.00
2023-01-21T15:45:55.996Z,2.27
2023-01-21T15:48:42.744Z,1.63
2023-01-21T15:54:31.064Z,3.23
2023-01-21T15:57:06.114Z,2.50
2023-01-21T15:59:50.979Z,2.80
2023-01-21T16:02:21.191Z,2.70
2023-01-21T16:04:54.981Z,2.37
2023-01-21T16:07:26.187Z,2.90
2023-01-21T16:10:01.504Z,3.00
2023-01-21T16:12:33.683Z,2.37
2023-01-21T16:15:04.854Z,2.80
2023-01-21T16:17:40.171Z,2.93
2023-01-21T16:20:11.149Z,2.93
2023-01-21T16:22:40.538Z,2.53
2023-01-21T16:25:11.147Z,2.17
2023-01-21T16:27:38.572Z,2.10
2023-01-21T16:30:07.337Z,2.83
2023-01-21T16:32:37.022Z,2.30
2023-01-21T16:35:04.715Z,3.00
2023-01-21T16:37:32.779Z,3.33
2023-01-21T16:40:20.533Z,2.67
2023-01-21T16:42:47.938Z,1.63
2023-01-21T16:45:18.047Z,2.37
2023-01-21T16:47:46.317Z,2.40
2023-01-21T16:50:20.325Z,2.27
2023-01-21T16:52:47.771Z,2.60
2023-01-21T16:55:20.650Z,2.73
2023-01-21T16:57:50.303Z,2.43
2023-01-21T17:00:25.661Z,2.83
2023-01-21T17:02:54.847Z,2.70
2023-01-21T17:05:22.573Z,2.10
2023-01-21T17:07:51.740Z,2.60
2023-01-21T17:10:21.482Z,2.33
2023-01-21T17:12:49.656Z,2.23
2023-01-21T17:15:19.207Z,2.40
2023-01-21T17:17:46.908Z,2.90
2023-01-21T17:20:33.099Z,2.30
2023-01-21T17:23:03.269Z,2.50
2023-01-21T17:25:32.159Z,2.13
2023-01-21T17:27:59.743Z,1.83
2023-01-21T17:30:28.453Z,1.93
2023-01-21T17:32:56.610Z,2.13
2023-01-21T17:35:24.731Z,2.33
2023-01-21T17:37:53.357Z,2.10
2023-01-21T17:40:24.563Z,1.73
2023-01-21T17:42:53.442Z,2.07
2023-01-21T17:45:28.044Z,2.13
2023-01-21T17:48:08.284Z,1.90
2023-01-21T17:50:36.298Z,2.23
2023-01-21T17:53:05.129Z,2.03
2023-01-21T17:55:33.431Z,2.10
2023-01-21T17:58:05.469Z,1.93
2023-01-21T18:00:37.439Z,2.67
2023-01-21T18:03:04.985Z,2.80
2023-01-21T18:05:32.624Z,1.80
2023-01-21T18:08:00.055Z,2.40
2023-01-21T18:10:28.430Z,2.13
2023-01-21T18:12:57.922Z,2.00
2023-01-21T18:15:26.933Z,1.73
2023-01-21T18:17:55.244Z,1.40
2023-01-21T18:20:23.509Z,1.60
2023-01-21T18:22:51.577Z,2.00
2023-01-21T18:25:19.666Z,2.37
2023-01-21T18:27:51.818Z,2.10
2023-01-21T18:30:20.662Z,2.03
2023-01-21T18:32:49.897Z,2.07
2023-01-21T18:35:18.405Z,2.73
2023-01-21T18:37:48.155Z,2.17
2023-01-21T18:40:17.721Z,2.37
2023-01-21T18:42:46.069Z,2.20
2023-01-21T18:45:18.418Z,2.70
2023-01-21T18:47:46.266Z,1.63
2023-01-21T18:50:17.077Z,1.83
2023-01-21T18:52:44.501Z,1.90
2023-01-21T18:55:13.281Z,2.50
2023-01-21T18:57:41.488Z,1.90
2023-01-21T19:00:15.485Z,2.03
2023-01-21T19:02:42.843Z,1.90
2023-01-21T19:05:10.260Z,2.27
2023-01-21T19:07:38.939Z,2.40
2023-01-21T19:10:06.853Z,2.77
2023-01-21T19:12:34.230Z,2.73
2023-01-21T19:15:01.914Z,2.30
2023-01-21T19:17:30.005Z,2.43
2023-01-21T19:19:57.660Z,2.30
2023-01-21T19:22:24.998Z,2.00
2023-01-21T19:24:53.685Z,3.07
2023-01-21T19:27:23.587Z,1.80
2023-01-21T19:29:53.097Z,2.57
2023-01-21T19:32:20.586Z,2.67
2023-01-21T19:34:47.960Z,1.73
2023-01-21T19:37:15.781Z,2.43
2023-01-21T19:39:43.138Z,2.50
2023-01-21T19:42:12.126Z,2.53
2023-01-21T19:44:42.718Z,1.70
2023-01-21T19:47:15.846Z,1.97
2023-01-21T19:49:43.132Z,1.53
2023-01-21T19:52:11.146Z,2.20
2023-01-21T19:54:38.512Z,1.40
2023-01-21T19:57:06.053Z,2.57
2023-01-21T19:59:35.327Z,2.70
2023-01-21T20:02:02.754Z,2.67
2023-01-21T20:04:30.134Z,2.60
2023-01-21T20:06:57.500Z,2.30
2023-01-21T20:09:24.869Z,2.73
2023-01-21T20:11:52.218Z,2.50
2023-01-21T20:14:19.768Z,2.20
2023-01-21T20:16:49.990Z,2.20
2023-01-21T20:19:19.120Z,2.87
2023-01-21T20:21:59.863Z,2.47
2023-01-21T20:24:30.097Z,2.27
2023-01-21T20:26:57.810Z,3.03
2023-01-21T20:29:26.922Z,2.83
2023-01-21T20:31:55.773Z,2.13
2023-01-21T20:34:23.221Z,2.67
2023-01-21T20:36:51.817Z,2.40
2023-01-21T20:39:19.520Z,2.90
2023-01-21T20:41:46.862Z,2.13
2023-01-21T20:44:14.202Z,2.20
2023-01-21T20:46:43.330Z,2.30
2023-01-21T20:49:12.275Z,1.43
2023-01-21T20:51:39.630Z,2.53
2023-01-21T20:54:07.024Z,2.47
2023-01-21T20:56:34.464Z,2.10
2023-01-21T20:59:01.760Z,2.10
2023-01-21T21:01:31.116Z,1.53
2023-01-21T21:03:58.749Z,2.43
2023-01-21T21:06:28.588Z,2.10
2023-01-21T21:08:56.212Z,2.20
2023-01-21T21:11:23.750Z,2.47
2023-01-21T21:13:52.332Z,2.73
2023-01-21T21:16:21.265Z,2.20
2023-01-21T21:18:49.081Z,1.77
2023-01-21T21:21:16.796Z,2.33
2023-01-21T21:23:46.717Z,2.43
2023-01-21T21:26:18.784Z,2.00
2023-01-21T21:28:47.123Z,2.13
2023-01-21T21:31:15.785Z,2.47
2023-01-21T21:33:43.570Z,2.00
2023-01-21T21:36:13.772Z,2.40
2023-01-21T21:38:41.227Z,1.77
2023-01-21T21:41:27.365Z,1.77
2023-01-21T21:43:55.301Z,1.70
2023-01-21T21:46:40.698Z,2.10
2023-01-21T21:49:08.088Z,2.10
2023-01-21T21:51:37.945Z,1.43
2023-01-21T21:54:05.399Z,1.87
2023-01-21T21:56:34.614Z,1.70
2023-01-21T21:59:02.258Z,2.03
2023-01-21T22:01:31.100Z,2.33
2023-01-21T22:03:59.312Z,1.70
2023-01-21T22:06:27.153Z,2.47
2023-01-21T22:08:55.259Z,2.57
2023-01-21T22:11:23.438Z,2.00
2023-01-21T22:13:52.567Z,2.27
2023-01-21T22:16:20.713Z,1.97
2023-01-21T22:18:48.102Z,1.87
2023-01-21T22:21:16.369Z,2.70
2023-01-21T22:23:44.205Z,2.10
2023-01-21T22:26:13.444Z,2.43
2023-01-21T22:28:41.557Z,2.37
2023-01-21T22:31:11.408Z,1.50
2023-01-21T22:33:39.148Z,2.27
2023-01-21T22:36:07.962Z,2.17
2023-01-21T22:38:37.485Z,1.90
2023-01-21T22:41:06.796Z,2.00
2023-01-21T22:43:35.005Z,2.40
2023-01-21T22:46:02.473Z,2.10
2023-01-21T22:48:31.588Z,1.80
2023-01-21T22:50:59.918Z,1.43
2023-01-21T22:53:27.934Z,2.03
2023-01-21T22:55:55.658Z,1.80
2023-01-21T22:58:23.126Z,1.80
2023-01-21T23:00:51.059Z,1.87
2023-01-21T23:03:18.534Z,2.30
2023-01-21T23:05:47.502Z,2.10
2023-01-21T23:08:19.965Z,2.23
2023-01-21T23:10:48.039Z,1.80
2023-01-21T23:13:16.016Z,2.00
2023-01-21T23:15:43.901Z,1.97
2023-01-21T23:18:11.651Z,1.70
2023-01-21T23:20:39.091Z,1.97
2023-01-21T23:23:07.822Z,2.23
2023-01-21T23:25:35.185Z,2.13
2023-01-21T23:28:02.645Z,1.87
2023-01-21T23:30:30.159Z,1.63
2023-01-21T23:32:57.545Z,1.60
2023-01-21T23:35:24.968Z,2.20
2023-01-21T23:37:52.433Z,2.37
2023-01-21T23:40:21.222Z,2.10
2023-01-21T23:42:48.753Z,1.70
2023-01-21T23:45:18.491Z,1.47
2023-01-21T23:47:47.286Z,1.83
2023-01-21T23:50:14.868Z,2.33
2023-01-21T23:52:42.714Z,1.90
2023-01-21T23:55:10.796Z,2.23
2023-01-21T23:57:39.533Z,2.30
